createdAt,value
2019-02-18T00:01:36.320Z,3.78
2019-02-18T00:04:11.926Z,3.68
2019-02-18T00:06:50.510Z,3.74
2019-02-18T00:09:24.417Z,3.74
2019-02-18T00:11:58.073Z,3.69
2019-02-18T00:14:31.926Z,3.59
2019-02-18T00:17:05.486Z,3.49
2019-02-18T00:19:36.739Z,3.38
2019-02-18T00:22:11.669Z,3.38
2019-02-18T00:24:42.801Z,3.41
2019-02-18T00:27:21.230Z,3.39
2019-02-18T00:29:55.165Z,3.18
2019-02-18T00:32:25.087Z,3.18
2019-02-18T00:34:54.911Z,3.15
2019-02-18T00:37:28.432Z,3.15
2019-02-18T00:39:58.571Z,3.48
2019-02-18T00:42:33.450Z,3.69
2019-02-18T00:45:03.423Z,3.99
2019-02-18T00:47:36.683Z,4.29
2019-02-18T00:50:08.233Z,4.49
2019-02-18T00:52:44.011Z,4.70
2019-02-18T00:55:14.878Z,4.85
2019-02-18T00:57:52.372Z,4.85
2019-02-18T01:00:24.533Z,4.81
2019-02-18T01:03:01.378Z,4.69
2019-02-18T01:05:36.770Z,4.78
2019-02-18T01:08:06.819Z,4.55
2019-02-18T01:10:36.587Z,4.68
2019-02-18T01:13:11.772Z,4.62
2019-02-18T01:15:41.534Z,4.59
2019-02-18T01:18:11.490Z,4.62
2019-02-18T01:20:44.352Z,5.14
2019-02-18T01:23:14.157Z,5.01
2019-02-18T01:25:44.958Z,4.83
2019-02-18T01:28:18.762Z,5.25
2019-02-18T01:30:48.578Z,5.38
2019-02-18T01:33:21.481Z,5.43
2019-02-18T01:35:53.183Z,5.55
2019-02-18T01:38:24.533Z,5.38
2019-02-18T01:40:57.121Z,5.20
2019-02-18T01:43:28.256Z,4.89
2019-02-18T01:45:58.882Z,5.12
2019-02-18T01:48:29.838Z,5.65
2019-02-18T01:50:59.699Z,5.69
2019-02-18T01:53:29.885Z,5.56
2019-02-18T01:56:01.999Z,6.03
2019-02-18T01:58:33.285Z,6.25
2019-02-18T02:01:06.716Z,6.39
2019-02-18T02:03:40.003Z,6.35
2019-02-18T02:06:12.484Z,5.98
2019-02-18T02:08:45.307Z,5.90
2019-02-18T02:11:25.175Z,6.00
2019-02-18T02:13:55.305Z,6.40
2019-02-18T02:16:25.087Z,6.61
2019-02-18T02:18:55.031Z,6.59
2019-02-18T02:21:33.584Z,6.60
2019-02-18T02:24:06.758Z,6.39
2019-02-18T02:26:47.139Z,6.14
2019-02-18T02:29:21.492Z,6.14
2019-02-18T02:32:03.636Z,6.19
2019-02-18T02:34:38.834Z,5.89
2019-02-18T02:37:10.241Z,5.89
2019-02-18T02:39:42.014Z,5.92
2019-02-18T02:42:17.077Z,5.91
2019-02-18T02:44:49.900Z,5.97
2019-02-18T02:47:28.177Z,5.97
2019-02-18T02:50:18.017Z,5.93
2019-02-18T02:52:55.081Z,5.94
2019-02-18T02:55:41.191Z,5.78
2019-02-18T02:58:25.940Z,5.63
2019-02-18T03:01:14.337Z,5.38
2019-02-18T03:04:05.638Z,5.48
2019-02-18T03:07:05.385Z,5.40
2019-02-18T03:09:43.529Z,5.41
2019-02-18T03:12:38.837Z,5.53
2019-02-18T03:15:44.689Z,5.44
2019-02-18T03:18:36.190Z,5.48
2019-02-18T03:21:43.208Z,5.60
2019-02-18T03:24:28.043Z,5.56
2019-02-18T03:27:23.997Z,5.65
2019-02-18T03:30:48.019Z,5.70
2019-02-18T03:33:51.689Z,5.64
2019-02-18T03:37:00.198Z,5.49
2019-02-18T03:39:57.831Z,5.57
2019-02-18T03:42:46.788Z,5.49
2019-02-18T03:45:35.452Z,5.27
2019-02-18T03:48:17.526Z,5.51
2019-02-18T03:50:59.232Z,5.46
2019-02-18T03:53:39.963Z,5.11
2019-02-18T03:56:39.070Z,5.08
2019-02-18T03:59:36.518Z,5.19
2019-02-18T04:02:20.853Z,5.29
2019-02-18T04:05:10.417Z,5.30
2019-02-18T04:08:00.419Z,5.39
2019-02-18T04:11:15.282Z,5.51
2019-02-18T04:14:02.786Z,5.33
2019-02-18T04:16:48.958Z,5.18
2019-02-18T04:19:43.380Z,5.16
2019-02-18T04:22:43.545Z,5.24
2019-02-18T04:25:27.255Z,5.21
2019-02-18T04:28:15.538Z,5.26
2019-02-18T04:31:01.744Z,5.15
2019-02-18T04:33:53.078Z,5.07
2019-02-18T04:36:48.267Z,5.20
2019-02-18T04:39:31.461Z,5.30
2019-02-18T04:42:27.612Z,5.21
2019-02-18T04:45:15.939Z,5.16
2019-02-18T04:48:00.887Z,5.13
2019-02-18T04:50:42.009Z,5.04
2019-02-18T04:53:29.599Z,5.03
2019-02-18T04:56:16.220Z,5.31
2019-02-18T04:59:17.826Z,5.23
2019-02-18T05:02:04.595Z,5.17
2019-02-18T05:04:53.092Z,5.08
2019-02-18T05:07:50.760Z,5.24
2019-02-18T05:10:47.262Z,5.30
2019-02-18T05:13:45.956Z,5.18
2019-02-18T05:19:59.331Z,5.20
2019-02-18T05:22:43.540Z,5.00
2019-02-18T05:25:44.495Z,5.08
2019-02-18T05:28:45.509Z,5.14
2019-02-18T05:31:40.180Z,5.15
2019-02-18T05:34:35.689Z,5.25
2019-02-18T05:40:35.879Z,4.98
2019-02-18T05:43:38.221Z,4.91
2019-02-18T05:46:38.744Z,5.05
2019-02-18T05:49:24.458Z,5.21
2019-02-18T05:52:23.490Z,5.08
2019-02-18T05:55:20.381Z,4.98
2019-02-18T05:58:13.851Z,5.12
2019-02-18T06:00:57.829Z,5.18
2019-02-18T06:03:51.996Z,5.11
2019-02-18T06:06:42.598Z,4.94
2019-02-18T06:09:42.697Z,4.97
2019-02-18T06:12:56.482Z,4.89
2019-02-18T06:15:45.361Z,4.98
2019-02-18T06:18:55.643Z,4.86
2019-02-18T06:22:30.318Z,4.82
2019-02-18T06:25:25.297Z,4.89
2019-02-18T06:28:28.908Z,4.93
2019-02-18T06:31:05.918Z,4.82
2019-02-18T06:33:39.670Z,4.88
2019-02-18T06:36:18.550Z,5.09
2019-02-18T06:38:48.939Z,5.08
2019-02-18T06:41:18.851Z,4.97
2019-02-18T06:43:53.264Z,4.95
2019-02-18T06:46:38.008Z,5.20
2019-02-18T06:49:08.274Z,5.08
2019-02-18T06:51:38.147Z,5.04
2019-02-18T06:54:08.242Z,5.07
2019-02-18T06:57:02.196Z,5.18
2019-02-18T06:59:37.700Z,5.08
2019-02-18T07:02:12.699Z,5.07
2019-02-18T07:04:50.846Z,5.09
2019-02-18T07:07:34.474Z,5.11
2019-02-18T07:10:09.220Z,5.12
2019-02-18T07:12:48.750Z,5.11
2019-02-18T07:15:21.873Z,5.09
2019-02-18T07:17:53.244Z,5.06
2019-02-18T07:20:23.231Z,5.17
2019-02-18T07:22:53.269Z,5.20
2019-02-18T07:25:23.037Z,5.23
2019-02-18T07:27:52.952Z,5.28
2019-02-18T07:30:22.760Z,5.51
2019-02-18T07:32:52.544Z,5.43
2019-02-18T07:35:26.763Z,5.34
2019-02-18T07:37:58.333Z,5.40
2019-02-18T07:40:31.200Z,5.61
2019-02-18T07:43:02.484Z,5.58
2019-02-18T07:45:37.114Z,5.61
2019-02-18T07:48:10.473Z,5.67
2019-02-18T07:50:44.268Z,5.67
2019-02-18T07:53:15.800Z,5.84
2019-02-18T07:55:50.232Z,5.71
2019-02-18T07:58:24.006Z,5.58
2019-02-18T08:00:54.434Z,5.50
2019-02-18T08:03:24.428Z,5.50
2019-02-18T08:05:55.148Z,5.60
2019-02-18T08:08:30.363Z,5.59
2019-02-18T08:11:00.118Z,5.61
2019-02-18T08:13:35.228Z,5.72
2019-02-18T08:16:06.568Z,5.62
2019-02-18T08:18:46.128Z,5.64
2019-02-18T08:21:16.065Z,5.33
2019-02-18T08:23:48.206Z,5.52
2019-02-18T08:26:25.050Z,5.61
2019-02-18T08:29:00.587Z,5.57
2019-02-18T08:31:34.409Z,5.61
2019-02-18T08:34:16.386Z,5.67
2019-02-18T08:36:52.813Z,5.67
2019-02-18T08:39:28.627Z,5.59
2019-02-18T08:42:06.920Z,5.76
2019-02-18T08:44:48.233Z,5.68
2019-02-18T08:47:32.637Z,5.51
2019-02-18T08:50:13.416Z,5.71
2019-02-18T08:52:44.367Z,5.71
2019-02-18T08:55:17.533Z,5.78
2019-02-18T08:57:50.632Z,5.91
2019-02-18T09:00:23.669Z,5.72
2019-02-18T09:02:56.266Z,5.84
2019-02-18T09:05:28.684Z,5.91
2019-02-18T09:08:01.892Z,5.77
2019-02-18T09:10:34.256Z,5.82
2019-02-18T09:13:04.125Z,5.72
2019-02-18T09:15:34.064Z,5.93
2019-02-18T09:18:06.542Z,5.78
2019-02-18T09:20:36.456Z,6.23
2019-02-18T09:23:16.051Z,6.23
2019-02-18T09:25:48.811Z,6.22
2019-02-18T09:28:18.663Z,5.98
2019-02-18T09:30:54.534Z,5.96
2019-02-18T09:33:32.265Z,6.00
2019-02-18T09:36:02.055Z,6.09
2019-02-18T09:38:37.772Z,6.09
2019-02-18T09:41:11.845Z,6.14
2019-02-18T09:43:53.662Z,6.37
2019-02-18T09:46:27.238Z,6.51
2019-02-18T09:48:57.855Z,6.42
2019-02-18T09:51:33.990Z,6.66
2019-02-18T09:56:56.285Z,6.72
2019-02-18T09:59:30.155Z,6.79
2019-02-18T10:02:07.589Z,6.86
2019-02-18T10:04:49.019Z,6.96
2019-02-18T10:07:29.109Z,7.17
2019-02-18T10:10:00.317Z,7.31
2019-02-18T10:12:44.203Z,7.20
2019-02-18T10:15:19.364Z,6.99
2019-02-18T10:17:50.124Z,7.27
2019-02-18T10:20:20.111Z,7.21
2019-02-18T10:22:57.554Z,7.03
2019-02-18T10:25:27.997Z,7.08
2019-02-18T10:27:57.730Z,7.25
2019-02-18T10:30:35.037Z,7.23
2019-02-18T10:33:04.651Z,7.17
2019-02-18T10:35:41.615Z,7.23
2019-02-18T10:38:11.533Z,7.36
2019-02-18T10:40:41.663Z,7.40
2019-02-18T10:43:20.344Z,7.36
2019-02-18T10:45:57.220Z,7.52
2019-02-18T10:48:32.201Z,7.41
2019-02-18T10:51:06.078Z,7.36
2019-02-18T10:53:36.467Z,7.27
2019-02-18T10:56:13.704Z,7.27
2019-02-18T10:58:45.199Z,7.23
2019-02-18T11:01:16.694Z,7.45
2019-02-18T11:03:54.396Z,7.60
2019-02-18T11:06:34.463Z,7.62
2019-02-18T11:09:08.983Z,7.24
2019-02-18T11:11:38.989Z,7.46
2019-02-18T11:14:10.295Z,7.98
2019-02-18T11:16:44.465Z,7.94
2019-02-18T11:19:17.596Z,7.74
2019-02-18T11:22:03.183Z,7.70
2019-02-18T11:24:41.650Z,7.55
2019-02-18T11:27:24.644Z,7.46
2019-02-18T11:30:01.194Z,7.34
2019-02-18T11:32:32.399Z,7.44
2019-02-18T11:35:14.697Z,7.62
2019-02-18T11:37:45.122Z,7.68
2019-02-18T11:40:17.916Z,7.70
2019-02-18T11:42:47.771Z,7.72
2019-02-18T11:45:20.124Z,7.65
2019-02-18T11:47:52.065Z,7.75
2019-02-18T11:50:25.759Z,7.94
2019-02-18T11:53:00.814Z,8.10
2019-02-18T11:55:31.572Z,8.07
2019-02-18T11:58:02.949Z,8.18
2019-02-18T12:00:36.078Z,8.24
2019-02-18T12:03:12.748Z,8.24
2019-02-18T12:05:43.736Z,8.34
2019-02-18T12:08:13.497Z,8.47
2019-02-18T12:10:45.976Z,8.30
2019-02-18T12:13:15.981Z,8.67
2019-02-18T12:15:45.818Z,8.62
2019-02-18T12:18:23.445Z,8.58
2019-02-18T12:20:58.510Z,8.60
2019-02-18T12:23:33.410Z,8.54
2019-02-18T12:26:11.473Z,8.66
2019-02-18T12:28:48.559Z,8.74
2019-02-18T12:31:18.473Z,9.03
2019-02-18T12:33:52.141Z,9.57
2019-02-18T12:36:25.506Z,9.29
2019-02-18T12:38:57.877Z,9.15
2019-02-18T12:41:34.164Z,9.48
2019-02-18T12:44:07.189Z,9.60
2019-02-18T12:46:42.664Z,9.55
2019-02-18T12:49:13.190Z,9.51
2019-02-18T12:51:44.525Z,10.02
2019-02-18T12:54:21.307Z,10.04
2019-02-18T12:56:57.580Z,9.81
2019-02-18T12:59:30.688Z,9.78
2019-02-18T13:02:09.070Z,10.00
2019-02-18T13:04:42.564Z,10.15
2019-02-18T13:07:21.856Z,10.34
2019-02-18T13:09:54.976Z,10.17
2019-02-18T13:12:39.918Z,9.89
2019-02-18T13:15:19.572Z,9.54
2019-02-18T13:17:53.152Z,9.35
2019-02-18T13:20:30.472Z,9.18
2019-02-18T13:23:05.438Z,9.08
2019-02-18T13:25:36.971Z,9.39
2019-02-18T13:28:12.041Z,9.77
2019-02-18T13:30:42.347Z,10.13
2019-02-18T13:33:12.599Z,10.64
2019-02-18T13:35:42.693Z,10.82
2019-02-18T13:38:18.670Z,10.87
2019-02-18T13:40:52.479Z,11.20
2019-02-18T13:43:22.491Z,11.76
2019-02-18T13:45:57.832Z,12.14
2019-02-18T13:48:35.527Z,11.51
2019-02-18T13:51:32.089Z,11.73
2019-02-18T13:54:25.889Z,12.20
2019-02-18T13:57:23.706Z,11.82
2019-02-18T14:00:39.247Z,11.62
2019-02-18T14:03:34.426Z,11.53
2019-02-18T14:06:29.878Z,11.55
2019-02-18T14:09:20.754Z,12.03
2019-02-18T14:12:18.585Z,12.20
2019-02-18T14:15:24.115Z,12.53
2019-02-18T14:18:36.247Z,12.57
2019-02-18T14:21:26.370Z,12.24
2019-02-18T14:24:44.264Z,12.54
2019-02-18T14:27:55.086Z,12.67
2019-02-18T14:30:54.886Z,11.96
2019-02-18T14:33:43.707Z,11.68
2019-02-18T14:36:30.123Z,11.62
2019-02-18T14:39:25.059Z,11.49
2019-02-18T14:42:31.369Z,11.21
2019-02-18T14:45:30.101Z,11.12
2019-02-18T14:48:37.583Z,11.10
2019-02-18T14:51:31.884Z,11.19
2019-02-18T14:54:28.177Z,11.25
2019-02-18T14:57:26.439Z,11.25
2019-02-18T15:00:26.643Z,11.28
2019-02-18T15:03:04.112Z,11.42
2019-02-18T15:05:37.328Z,11.45
2019-02-18T15:08:08.940Z,11.39
2019-02-18T15:11:04.303Z,11.47
2019-02-18T15:13:53.431Z,11.45
2019-02-18T15:16:55.484Z,11.50
2019-02-18T15:19:34.274Z,11.52
2019-02-18T15:22:24.669Z,11.50
2019-02-18T15:25:05.417Z,11.49
2019-02-18T15:27:41.635Z,11.51
2019-02-18T15:30:23.915Z,11.57
2019-02-18T15:33:25.881Z,11.42
2019-02-18T15:36:15.086Z,11.61
2019-02-18T15:39:04.683Z,11.58
2019-02-18T15:41:39.746Z,11.63
2019-02-18T15:44:16.716Z,11.59
2019-02-18T15:46:56.697Z,11.58
2019-02-18T15:49:35.596Z,11.58
2019-02-18T15:52:25.311Z,11.53
2019-02-18T15:55:06.362Z,11.53
2019-02-18T15:57:40.738Z,11.40
2019-02-18T16:00:28.421Z,11.45
2019-02-18T16:03:12.878Z,11.47
2019-02-18T16:05:53.599Z,11.38
2019-02-18T16:08:35.631Z,11.27
2019-02-18T16:11:33.069Z,11.32
2019-02-18T16:14:22.183Z,11.31
2019-02-18T16:17:19.235Z,11.22
2019-02-18T16:20:03.968Z,11.21
2019-02-18T16:22:54.667Z,11.16
2019-02-18T16:25:38.422Z,11.07
2019-02-18T16:28:29.521Z,11.08
2019-02-18T16:31:12.873Z,10.98
2019-02-18T16:33:57.871Z,10.95
2019-02-18T16:36:40.025Z,10.84
2019-02-18T16:39:20.765Z,10.76
2019-02-18T16:41:58.313Z,10.73
2019-02-18T16:44:37.761Z,10.68
2019-02-18T16:47:14.422Z,10.64
2019-02-18T16:49:47.264Z,10.56
2019-02-18T16:52:26.038Z,10.47
2019-02-18T16:55:01.204Z,10.43
2019-02-18T16:57:31.608Z,10.36
2019-02-18T17:00:02.551Z,10.30
2019-02-18T17:02:36.194Z,10.28
2019-02-18T17:05:11.196Z,10.24
2019-02-18T17:07:43.872Z,10.14
2019-02-18T17:10:15.564Z,10.11
2019-02-18T17:12:49.636Z,10.04
2019-02-18T17:15:21.552Z,9.98
2019-02-18T17:17:51.370Z,9.98
2019-02-18T17:20:21.180Z,9.95
2019-02-18T17:22:51.099Z,9.89
2019-02-18T17:25:20.912Z,9.88
2019-02-18T17:27:55.033Z,9.89
2019-02-18T17:30:24.834Z,9.82
2019-02-18T17:32:56.491Z,9.73
2019-02-18T17:35:26.572Z,9.67
2019-02-18T17:37:56.341Z,9.63
2019-02-18T17:40:26.751Z,9.60
2019-02-18T17:42:56.522Z,9.47
2019-02-18T17:45:26.336Z,9.44
2019-02-18T17:47:56.551Z,9.40
2019-02-18T17:50:28.258Z,9.35
2019-02-18T17:52:58.304Z,9.30
2019-02-18T17:55:28.134Z,9.30
2019-02-18T17:58:02.594Z,9.28
2019-02-18T18:00:36.270Z,9.18
2019-02-18T18:03:11.524Z,9.27
2019-02-18T18:05:46.937Z,9.25
2019-02-18T18:08:18.224Z,9.20
2019-02-18T18:10:53.156Z,9.16
2019-02-18T18:13:25.407Z,9.15
2019-02-18T18:15:57.314Z,9.09
2019-02-18T18:18:27.101Z,9.08
2019-02-18T18:20:56.890Z,9.06
2019-02-18T18:23:30.659Z,9.00
2019-02-18T18:26:06.181Z,8.92
2019-02-18T18:28:37.205Z,8.86
2019-02-18T18:31:07.889Z,8.82
2019-02-18T18:33:41.415Z,8.74
2019-02-18T18:36:14.958Z,8.69
2019-02-18T18:38:44.788Z,8.65
2019-02-18T18:41:14.598Z,8.60
2019-02-18T18:43:46.608Z,8.52
2019-02-18T18:46:18.435Z,8.43
2019-02-18T18:48:48.298Z,8.41
2019-02-18T18:51:18.391Z,8.36
2019-02-18T18:53:48.217Z,8.33
2019-02-18T18:56:17.983Z,8.30
2019-02-18T18:58:47.797Z,8.29
2019-02-18T19:01:18.018Z,8.23
2019-02-18T19:03:47.992Z,8.20
2019-02-18T19:06:17.951Z,8.14
2019-02-18T19:08:50.266Z,8.10
2019-02-18T19:11:22.166Z,8.00
2019-02-18T19:13:52.106Z,7.84
2019-02-18T19:16:21.916Z,7.72
2019-02-18T19:18:54.935Z,7.58
2019-02-18T19:21:25.101Z,7.56
2019-02-18T19:23:58.549Z,7.44
2019-02-18T19:26:28.851Z,7.49
2019-02-18T19:28:58.770Z,7.51
2019-02-18T19:31:28.568Z,7.51
2019-02-18T19:33:58.698Z,7.61
2019-02-18T19:36:32.265Z,7.58
2019-02-18T19:39:04.726Z,7.50
2019-02-18T19:41:37.677Z,7.50
2019-02-18T19:44:29.049Z,7.50
2019-02-18T19:47:19.515Z,7.51
2019-02-18T19:49:57.464Z,7.47
2019-02-18T19:52:40.673Z,7.48
2019-02-18T19:55:17.031Z,7.45
2019-02-18T19:57:50.621Z,7.45
2019-02-18T20:00:26.136Z,7.42
2019-02-18T20:02:56.952Z,7.44
2019-02-18T20:05:34.240Z,7.44
2019-02-18T20:08:07.856Z,7.42
2019-02-18T20:10:41.778Z,7.40
2019-02-18T20:13:14.387Z,7.41
2019-02-18T20:15:50.697Z,7.37
2019-02-18T20:18:21.658Z,7.35
2019-02-18T20:20:59.963Z,7.37
2019-02-18T20:23:33.590Z,7.32
2019-02-18T20:26:04.371Z,7.35
2019-02-18T20:28:36.474Z,7.39
2019-02-18T20:31:12.204Z,7.43
2019-02-18T20:33:47.485Z,7.41
2019-02-18T20:36:17.999Z,7.35
2019-02-18T20:38:55.495Z,7.38
2019-02-18T20:41:30.863Z,7.33
2019-02-18T20:44:07.514Z,7.26
2019-02-18T20:46:44.151Z,7.23
2019-02-18T20:49:23.187Z,7.27
2019-02-18T20:52:05.571Z,7.27
2019-02-18T20:54:39.826Z,7.15
2019-02-18T20:57:15.572Z,7.17
2019-02-18T20:59:59.690Z,7.17
2019-02-18T21:02:29.747Z,7.13
2019-02-18T21:05:00.445Z,7.05
2019-02-18T21:07:32.412Z,7.04
2019-02-18T21:10:02.364Z,6.88
2019-02-18T21:12:39.887Z,6.84
2019-02-18T21:15:10.965Z,6.84
2019-02-18T21:17:50.154Z,6.72
2019-02-18T21:20:20.456Z,6.72
2019-02-18T21:22:50.679Z,6.72
2019-02-18T21:25:21.967Z,6.77
2019-02-18T21:27:55.016Z,6.66
2019-02-18T21:30:26.356Z,6.40
2019-02-18T21:32:56.150Z,6.28
2019-02-18T21:35:26.403Z,6.13
2019-02-18T21:37:58.272Z,6.12
2019-02-18T21:40:28.034Z,6.16
2019-02-18T21:42:58.674Z,6.16
2019-02-18T21:45:28.624Z,6.18
2019-02-18T21:47:59.670Z,6.01
2019-02-18T21:50:29.586Z,6.00
2019-02-18T21:52:59.441Z,5.95
2019-02-18T21:55:29.250Z,5.95
2019-02-18T21:57:59.209Z,5.91
2019-02-18T22:00:29.044Z,5.90
2019-02-18T22:03:02.134Z,5.78
2019-02-18T22:05:32.955Z,5.66
2019-02-18T22:08:04.324Z,5.58
2019-02-18T22:10:34.081Z,5.56
2019-02-18T22:13:24.625Z,5.79
2019-02-18T22:15:56.678Z,5.65
2019-02-18T22:18:27.333Z,5.82
2019-02-18T22:20:57.111Z,5.91
2019-02-18T22:23:30.905Z,5.94
2019-02-18T22:26:01.013Z,6.00
2019-02-18T22:28:33.566Z,6.06
2019-02-18T22:31:07.982Z,6.10
2019-02-18T22:33:38.106Z,6.11
2019-02-18T22:36:12.011Z,6.13
2019-02-18T22:38:47.417Z,6.05
2019-02-18T22:41:17.439Z,6.06
2019-02-18T22:43:47.485Z,6.06
2019-02-18T22:46:19.254Z,6.00
2019-02-18T22:48:49.051Z,5.99
2019-02-18T22:51:24.879Z,6.06
2019-02-18T22:53:56.158Z,6.08
2019-02-18T22:56:25.998Z,6.07
2019-02-18T22:58:57.700Z,6.05
2019-02-18T23:01:27.922Z,5.94
2019-02-18T23:04:20.733Z,5.94
2019-02-18T23:06:53.489Z,5.93
2019-02-18T23:09:24.367Z,5.87
2019-02-18T23:11:59.858Z,5.77
2019-02-18T23:14:31.891Z,5.66
2019-02-18T23:17:07.658Z,5.57
2019-02-18T23:19:38.118Z,5.52
2019-02-18T23:22:14.315Z,5.54
2019-02-18T23:24:44.721Z,5.54
2019-02-18T23:27:20.081Z,5.66
2019-02-18T23:29:50.682Z,5.70
2019-02-18T23:32:25.399Z,5.76
2019-02-18T23:34:56.698Z,5.85
2019-02-18T23:37:28.109Z,5.94
2019-02-18T23:39:57.896Z,6.01
2019-02-18T23:42:27.739Z,6.04
2019-02-18T23:44:59.452Z,6.04
2019-02-18T23:47:31.115Z,5.79
2019-02-18T23:50:00.970Z,5.66
2019-02-18T23:52:30.759Z,5.25
2019-02-18T23:55:00.582Z,4.95
2019-02-18T23:57:31.422Z,4.81
